sensor_id;sensor_type;location;lat;lon;timestamp;pressure;altitude;pressure_sealevel;temperature
23992;BMP280;12205;50.600;4.608;2023-01-05T00:02:02;99888.81;;;11.52
23992;BMP280;12205;50.600;4.608;2023-01-05T00:04:29;99909.09;;;11.53
23992;BMP280;12205;50.600;4.608;2023-01-05T00:06:56;99905.22;;;11.51
23992;BMP280;12205;50.600;4.608;2023-01-05T00:09:23;99925.50;;;11.55
23992;BMP280;12205;50.600;4.608;2023-01-05T00:11:50;99933.91;;;11.50
23992;BMP280;12205;50.600;4.608;2023-01-05T00:14:35;99968.72;;;11.54
23992;BMP280;12205;50.600;4.608;2023-01-05T00:17:23;99961.06;;;11.52
23992;BMP280;12205;50.600;4.608;2023-01-05T00:20:15;99952.72;;;11.57
23992;BMP280;12205;50.600;4.608;2023-01-05T00:23:00;99963.41;;;11.57
23992;BMP280;12205;50.600;4.608;2023-01-05T00:25:30;99953.44;;;11.54
23992;BMP280;12205;50.600;4.608;2023-01-05T00:27:59;99951.84;;;11.50
23992;BMP280;12205;50.600;4.608;2023-01-05T00:30:30;99956.44;;;11.49
23992;BMP280;12205;50.600;4.608;2023-01-05T00:32:59;99960.66;;;11.50
23992;BMP280;12205;50.600;4.608;2023-01-05T00:35:28;99944.88;;;11.42
23992;BMP280;12205;50.600;4.608;2023-01-05T00:37:55;99959.06;;;11.42
23992;BMP280;12205;50.600;4.608;2023-01-05T00:40:22;99964.81;;;11.44
23992;BMP280;12205;50.600;4.608;2023-01-05T00:42:49;99949.97;;;11.50
23992;BMP280;12205;50.600;4.608;2023-01-05T00:45:20;99984.34;;;11.48
23992;BMP280;12205;50.600;4.608;2023-01-05T00:47:48;99982.41;;;11.45
23992;BMP280;12205;50.600;4.608;2023-01-05T00:50:18;99974.75;;;11.47
23992;BMP280;12205;50.600;4.608;2023-01-05T00:52:46;99974.13;;;11.57
23992;BMP280;12205;50.600;4.608;2023-01-05T00:55:14;99978.00;;;11.60
23992;BMP280;12205;50.600;4.608;2023-01-05T00:57:41;99984.03;;;11.53
23992;BMP280;12205;50.600;4.608;2023-01-05T01:00:14;99983.19;;;11.46
23992;BMP280;12205;50.600;4.608;2023-01-05T01:02:42;99974.13;;;11.57
23992;BMP280;12205;50.600;4.608;2023-01-05T01:05:10;99970.25;;;11.55
23992;BMP280;12205;50.600;4.608;2023-01-05T01:07:39;99957.72;;;11.63
23992;BMP280;12205;50.600;4.608;2023-01-05T01:10:08;99959.19;;;11.56
23992;BMP280;12205;50.600;4.608;2023-01-05T01:12:36;99957.56;;;11.48
23992;BMP280;12205;50.600;4.608;2023-01-05T01:15:04;99933.53;;;11.55
23992;BMP280;12205;50.600;4.608;2023-01-05T01:17:32;99955.72;;;11.52
23992;BMP280;12205;50.600;4.608;2023-01-05T01:20:00;99942.72;;;11.54
23992;BMP280;12205;50.600;4.608;2023-01-05T01:22:27;99967.13;;;11.46
23992;BMP280;12205;50.600;4.608;2023-01-05T01:24:56;99955.22;;;11.43
23992;BMP280;12205;50.600;4.608;2023-01-05T01:27:23;99948.00;;;11.44
23992;BMP280;12205;50.600;4.608;2023-01-05T01:29:50;99955.97;;;11.40
23992;BMP280;12205;50.600;4.608;2023-01-05T01:32:18;99962.44;;;11.35
23992;BMP280;12205;50.600;4.608;2023-01-05T01:34:45;99967.00;;;11.35
23992;BMP280;12205;50.600;4.608;2023-01-05T01:37:12;99952.47;;;11.36
23992;BMP280;12205;50.600;4.608;2023-01-05T01:39:45;99989.59;;;11.37
23992;BMP280;12205;50.600;4.608;2023-01-05T01:42:16;99967.72;;;11.32
23992;BMP280;12205;50.600;4.608;2023-01-05T01:44:53;99963.91;;;11.33
23992;BMP280;12205;50.600;4.608;2023-01-05T01:47:34;99956.72;;;11.37
23992;BMP280;12205;50.600;4.608;2023-01-05T01:50:09;99969.28;;;11.33
23992;BMP280;12205;50.600;4.608;2023-01-05T01:52:39;99975.38;;;11.30
23992;BMP280;12205;50.600;4.608;2023-01-05T01:55:09;99959.31;;;11.30
23992;BMP280;12205;50.600;4.608;2023-01-05T01:57:39;99968.47;;;11.29
23992;BMP280;12205;50.600;4.608;2023-01-05T02:00:09;99971.53;;;11.31
23992;BMP280;12205;50.600;4.608;2023-01-05T02:02:46;99988.00;;;11.33
23992;BMP280;12205;50.600;4.608;2023-01-05T02:05:21;99998.66;;;11.29
23992;BMP280;12205;50.600;4.608;2023-01-05T02:07:49;100015.50;;;11.30
23992;BMP280;12205;50.600;4.608;2023-01-05T02:10:23;100015.88;;;11.32
23992;BMP280;12205;50.600;4.608;2023-01-05T02:13:08;100025.06;;;11.31
23992;BMP280;12205;50.600;4.608;2023-01-05T02:15:44;100031.94;;;11.32
23992;BMP280;12205;50.600;4.608;2023-01-05T02:18:39;100039.25;;;11.35
23992;BMP280;12205;50.600;4.608;2023-01-05T02:21:29;100048.81;;;11.36
23992;BMP280;12205;50.600;4.608;2023-01-05T02:24:47;100036.22;;;11.36
23992;BMP280;12205;50.600;4.608;2023-01-05T02:27:38;100042.75;;;11.39
23992;BMP280;12205;50.600;4.608;2023-01-05T02:33:48;100059.56;;;11.39
23992;BMP280;12205;50.600;4.608;2023-01-05T02:36:27;100074.09;;;11.38
23992;BMP280;12205;50.600;4.608;2023-01-05T02:39:09;100080.56;;;11.37
23992;BMP280;12205;50.600;4.608;2023-01-05T02:41:47;100083.28;;;11.41
23992;BMP280;12205;50.600;4.608;2023-01-05T02:44:16;100080.25;;;11.43
23992;BMP280;12205;50.600;4.608;2023-01-05T02:47:01;100070.31;;;11.43
23992;BMP280;12205;50.600;4.608;2023-01-05T02:49:30;100072.19;;;11.39
23992;BMP280;12205;50.600;4.608;2023-01-05T02:52:00;100062.28;;;11.43
23992;BMP280;12205;50.600;4.608;2023-01-05T02:54:35;100071.03;;;11.40
23992;BMP280;12205;50.600;4.608;2023-01-05T02:57:09;100074.91;;;11.43
23992;BMP280;12205;50.600;4.608;2023-01-05T02:59:45;100088.34;;;11.46
23992;BMP280;12205;50.600;4.608;2023-01-05T03:02:21;100087.88;;;11.41
23992;BMP280;12205;50.600;4.608;2023-01-05T03:04:55;100086.28;;;11.36
23992;BMP280;12205;50.600;4.608;2023-01-05T03:07:28;100092.16;;;11.45
23992;BMP280;12205;50.600;4.608;2023-01-05T03:09:55;100092.63;;;11.54
23992;BMP280;12205;50.600;4.608;2023-01-05T03:12:27;100100.66;;;11.54
23992;BMP280;12205;50.600;4.608;2023-01-05T03:15:18;100100.97;;;11.49
23992;BMP280;12205;50.600;4.608;2023-01-05T03:17:53;100107.88;;;11.50
23992;BMP280;12205;50.600;4.608;2023-01-05T03:20:25;100108.28;;;11.52
23992;BMP280;12205;50.600;4.608;2023-01-05T03:22:57;100105.28;;;11.57
23992;BMP280;12205;50.600;4.608;2023-01-05T03:25:43;100112.59;;;11.61
23992;BMP280;12205;50.600;4.608;2023-01-05T03:28:38;100116.72;;;11.54
23992;BMP280;12205;50.600;4.608;2023-01-05T03:31:35;100117.97;;;11.61
23992;BMP280;12205;50.600;4.608;2023-01-05T03:34:31;100111.16;;;11.67
23992;BMP280;12205;50.600;4.608;2023-01-05T03:37:27;100130.16;;;11.58
23992;BMP280;12205;50.600;4.608;2023-01-05T03:39:59;100123.22;;;11.53
23992;BMP280;12205;50.600;4.608;2023-01-05T03:42:36;100123.59;;;11.55
23992;BMP280;12205;50.600;4.608;2023-01-05T03:45:06;100101.81;;;11.57
23992;BMP280;12205;50.600;4.608;2023-01-05T03:47:35;100122.47;;;11.56
23992;BMP280;12205;50.600;4.608;2023-01-05T03:50:05;100112.97;;;11.59
23992;BMP280;12205;50.600;4.608;2023-01-05T03:52:33;100116.84;;;11.62
23992;BMP280;12205;50.600;4.608;2023-01-05T03:55:00;100121.03;;;11.63
23992;BMP280;12205;50.600;4.608;2023-01-05T03:57:27;100135.50;;;11.58
23992;BMP280;12205;50.600;4.608;2023-01-05T03:59:55;100119.88;;;11.64
23992;BMP280;12205;50.600;4.608;2023-01-05T04:02:22;100135.94;;;11.64
23992;BMP280;12205;50.600;4.608;2023-01-05T04:04:50;100145.53;;;11.65
23992;BMP280;12205;50.600;4.608;2023-01-05T04:07:19;100145.84;;;11.60
23992;BMP280;12205;50.600;4.608;2023-01-05T04:09:47;100145.97;;;11.67
23992;BMP280;12205;50.600;4.608;2023-01-05T04:12:17;100153.56;;;11.65
23992;BMP280;12205;50.600;4.608;2023-01-05T04:14:45;100152.00;;;11.64
23992;BMP280;12205;50.600;4.608;2023-01-05T04:17:12;100163.88;;;11.63
23992;BMP280;12205;50.600;4.608;2023-01-05T04:19:39;100161.97;;;11.63
23992;BMP280;12205;50.600;4.608;2023-01-05T04:22:07;100158.13;;;11.61
23992;BMP280;12205;50.600;4.608;2023-01-05T04:24:35;100160.03;;;11.64
23992;BMP280;12205;50.600;4.608;2023-01-05T04:27:03;100154.69;;;11.64
23992;BMP280;12205;50.600;4.608;2023-01-05T04:29:31;100164.19;;;11.57
23992;BMP280;12205;50.600;4.608;2023-01-05T04:31:59;100150.75;;;11.54
23992;BMP280;12205;50.600;4.608;2023-01-05T04:34:26;100153.03;;;11.55
23992;BMP280;12205;50.600;4.608;2023-01-05T04:36:56;100129.38;;;11.57
23992;BMP280;12205;50.600;4.608;2023-01-05T04:39:24;100138.63;;;11.64
23992;BMP280;12205;50.600;4.608;2023-01-05T04:41:53;100138.97;;;11.59
23992;BMP280;12205;50.600;4.608;2023-01-05T04:44:20;100139.38;;;11.61
23992;BMP280;12205;50.600;4.608;2023-01-05T04:46:48;100147.69;;;11.55
23992;BMP280;12205;50.600;4.608;2023-01-05T04:49:16;100132.06;;;11.57
23992;BMP280;12205;50.600;4.608;2023-01-05T04:51:45;100144.66;;;11.53
23992;BMP280;12205;50.600;4.608;2023-01-05T04:54:13;100142.34;;;11.55
23992;BMP280;12205;50.600;4.608;2023-01-05T04:56:41;100147.00;;;11.59
23992;BMP280;12205;50.600;4.608;2023-01-05T04:59:10;100163.06;;;11.59
23992;BMP280;12205;50.600;4.608;2023-01-05T05:01:37;100167.69;;;11.62
23992;BMP280;12205;50.600;4.608;2023-01-05T05:04:08;100168.50;;;11.66
23992;BMP280;12205;50.600;4.608;2023-01-05T05:06:36;100177.66;;;11.65
23992;BMP280;12205;50.600;4.608;2023-01-05T05:09:03;100175.31;;;11.60
23992;BMP280;12205;50.600;4.608;2023-01-05T05:11:31;100159.25;;;11.60
23992;BMP280;12205;50.600;4.608;2023-01-05T05:13:58;100157.75;;;11.62
23992;BMP280;12205;50.600;4.608;2023-01-05T05:16:28;100157.78;;;11.66
23992;BMP280;12205;50.600;4.608;2023-01-05T05:18:55;100155.53;;;11.68
23992;BMP280;12205;50.600;4.608;2023-01-05T05:21:25;100173.41;;;11.60
23992;BMP280;12205;50.600;4.608;2023-01-05T05:23:53;100158.56;;;11.66
23992;BMP280;12205;50.600;4.608;2023-01-05T05:26:20;100165.03;;;11.65
23992;BMP280;12205;50.600;4.608;2023-01-05T05:28:48;100167.69;;;11.62
23992;BMP280;12205;50.600;4.608;2023-01-05T05:31:15;100167.69;;;11.62
23992;BMP280;12205;50.600;4.608;2023-01-05T05:33:44;100177.56;;;11.57
23992;BMP280;12205;50.600;4.608;2023-01-05T05:36:11;100179.16;;;11.62
23992;BMP280;12205;50.600;4.608;2023-01-05T05:38:38;100174.19;;;11.61
23992;BMP280;12205;50.600;4.608;2023-01-05T05:41:05;100177.63;;;11.61
23992;BMP280;12205;50.600;4.608;2023-01-05T05:43:32;100184.56;;;11.66
23992;BMP280;12205;50.600;4.608;2023-01-05T05:45:59;100181.38;;;11.56
23992;BMP280;12205;50.600;4.608;2023-01-05T05:48:26;100181.38;;;11.56
23992;BMP280;12205;50.600;4.608;2023-01-05T05:50:56;100189.75;;;11.55
23992;BMP280;12205;50.600;4.608;2023-01-05T05:53:23;100198.47;;;11.48
23992;BMP280;12205;50.600;4.608;2023-01-05T05:55:50;100184.28;;;11.44
23992;BMP280;12205;50.600;4.608;2023-01-05T05:58:18;100175.84;;;11.42
23992;BMP280;12205;50.600;4.608;2023-01-05T06:00:46;100189.31;;;11.49
23992;BMP280;12205;50.600;4.608;2023-01-05T06:03:13;100177.50;;;11.50
23992;BMP280;12205;50.600;4.608;2023-01-05T06:05:41;100188.25;;;11.54
23992;BMP280;12205;50.600;4.608;2023-01-05T06:08:09;100196.97;;;11.51
23992;BMP280;12205;50.600;4.608;2023-01-05T06:10:36;100208.50;;;11.55
23992;BMP280;12205;50.600;4.608;2023-01-05T06:13:04;100217.63;;;11.50
23992;BMP280;12205;50.600;4.608;2023-01-05T06:15:32;100224.41;;;11.44
23992;BMP280;12205;50.600;4.608;2023-01-05T06:17:59;100231.06;;;11.54
23992;BMP280;12205;50.600;4.608;2023-01-05T06:20:26;100246.38;;;11.53
23992;BMP280;12205;50.600;4.608;2023-01-05T06:22:53;100257.78;;;11.50
23992;BMP280;12205;50.600;4.608;2023-01-05T06:25:21;100252.53;;;11.57
23992;BMP280;12205;50.600;4.608;2023-01-05T06:27:49;100257.88;;;11.57
23992;BMP280;12205;50.600;4.608;2023-01-05T06:30:16;100259.31;;;11.51
23992;BMP280;12205;50.600;4.608;2023-01-05T06:32:43;100259.22;;;11.44
23992;BMP280;12205;50.600;4.608;2023-01-05T06:35:11;100262.59;;;11.41
23992;BMP280;12205;50.600;4.608;2023-01-05T06:37:41;100249.22;;;11.41
23992;BMP280;12205;50.600;4.608;2023-01-05T06:40:09;100253.03;;;11.40
23992;BMP280;12205;50.600;4.608;2023-01-05T06:42:39;100261.44;;;11.38
23992;BMP280;12205;50.600;4.608;2023-01-05T06:45:09;100254.47;;;11.34
23992;BMP280;12205;50.600;4.608;2023-01-05T06:47:38;100249.06;;;11.30
23992;BMP280;12205;50.600;4.608;2023-01-05T06:50:06;100242.97;;;11.30
23992;BMP280;12205;50.600;4.608;2023-01-05T06:52:33;100263.53;;;11.26
23992;BMP280;12205;50.600;4.608;2023-01-05T06:55:06;100244.44;;;11.27
23992;BMP280;12205;50.600;4.608;2023-01-05T06:57:33;100255.84;;;11.24
23992;BMP280;12205;50.600;4.608;2023-01-05T07:00:05;100244.44;;;11.27
23992;BMP280;12205;50.600;4.608;2023-01-05T07:02:33;100244.06;;;11.29
23992;BMP280;12205;50.600;4.608;2023-01-05T07:05:00;100232.25;;;11.30
23992;BMP280;12205;50.600;4.608;2023-01-05T07:07:27;100237.13;;;11.24
23992;BMP280;12205;50.600;4.608;2023-01-05T07:09:54;100245.09;;;11.20
23992;BMP280;12205;50.600;4.608;2023-01-05T07:12:22;100229.81;;;11.21
23992;BMP280;12205;50.600;4.608;2023-01-05T07:14:49;100230.16;;;11.19
23992;BMP280;12205;50.600;4.608;2023-01-05T07:17:18;100215.94;;;11.15
23992;BMP280;12205;50.600;4.608;2023-01-05T07:19:45;100230.59;;;11.22
23992;BMP280;12205;50.600;4.608;2023-01-05T07:22:12;100233.66;;;11.24
23992;BMP280;12205;50.600;4.608;2023-01-05T07:24:40;100245.50;;;11.23
23992;BMP280;12205;50.600;4.608;2023-01-05T07:27:07;100240.56;;;11.25
23992;BMP280;12205;50.600;4.608;2023-01-05T07:29:34;100246.66;;;11.22
23992;BMP280;12205;50.600;4.608;2023-01-05T07:32:01;100248.97;;;11.23
23992;BMP280;12205;50.600;4.608;2023-01-05T07:34:30;100246.66;;;11.22
23992;BMP280;12205;50.600;4.608;2023-01-05T07:36:57;100242.53;;;11.28
23992;BMP280;12205;50.600;4.608;2023-01-05T07:39:24;100248.31;;;11.30
23992;BMP280;12205;50.600;4.608;2023-01-05T07:41:51;100247.97;;;11.35
23992;BMP280;12205;50.600;4.608;2023-01-05T07:44:18;100255.13;;;11.27
23992;BMP280;12205;50.600;4.608;2023-01-05T07:46:45;100248.59;;;11.25
23992;BMP280;12205;50.600;4.608;2023-01-05T07:49:13;100244.47;;;11.31
23992;BMP280;12205;50.600;4.608;2023-01-05T07:51:42;100254.34;;;11.27
23992;BMP280;12205;50.600;4.608;2023-01-05T07:54:09;100277.97;;;11.21
23992;BMP280;12205;50.600;4.608;2023-01-05T07:56:36;100271.28;;;11.11
23992;BMP280;12205;50.600;4.608;2023-01-05T07:59:04;100265.66;;;11.16
23992;BMP280;12205;50.600;4.608;2023-01-05T08:01:31;100276.00;;;11.18
23992;BMP280;12205;50.600;4.608;2023-01-05T08:03:58;100270.28;;;11.19
23992;BMP280;12205;50.600;4.608;2023-01-05T08:06:25;100272.66;;;11.25
23992;BMP280;12205;50.600;4.608;2023-01-05T08:08:55;100280.28;;;11.23
23992;BMP280;12205;50.600;4.608;2023-01-05T08:11:43;100295.19;;;11.24
23992;BMP280;12205;50.600;4.608;2023-01-05T08:14:10;100286.03;;;11.25
23992;BMP280;12205;50.600;4.608;2023-01-05T08:16:37;100300.88;;;11.18
23992;BMP280;12205;50.600;4.608;2023-01-05T08:19:04;100300.16;;;11.22
23992;BMP280;12205;50.600;4.608;2023-01-05T08:21:31;100299.41;;;11.25
23992;BMP280;12205;50.600;4.608;2023-01-05T08:24:00;100309.47;;;11.31
23992;BMP280;12205;50.600;4.608;2023-01-05T08:26:27;100315.22;;;11.30
23992;BMP280;12205;50.600;4.608;2023-01-05T08:28:54;100325.59;;;11.35
23992;BMP280;12205;50.600;4.608;2023-01-05T08:31:24;100334.75;;;11.34
23992;BMP280;12205;50.600;4.608;2023-01-05T08:33:54;100333.97;;;11.33
23992;BMP280;12205;50.600;4.608;2023-01-05T08:36:23;100332.56;;;11.39
23992;BMP280;12205;50.600;4.608;2023-01-05T08:38:51;100329.94;;;11.43
23992;BMP280;12205;50.600;4.608;2023-01-05T08:41:21;100341.78;;;11.42
23992;BMP280;12205;50.600;4.608;2023-01-05T08:43:50;100349.09;;;11.45
23992;BMP280;12205;50.600;4.608;2023-01-05T08:46:18;100349.63;;;11.54
23992;BMP280;12205;50.600;4.608;2023-01-05T08:48:48;100348.91;;;11.57
23992;BMP280;12205;50.600;4.608;2023-01-05T08:51:16;100364.25;;;11.61
23992;BMP280;12205;50.600;4.608;2023-01-05T08:53:44;100373.56;;;11.67
23992;BMP280;12205;50.600;4.608;2023-01-05T08:56:11;100375.78;;;11.65
23992;BMP280;12205;50.600;4.608;2023-01-05T08:58:41;100378.19;;;11.70
23992;BMP280;12205;50.600;4.608;2023-01-05T09:01:10;100397.31;;;11.72
23992;BMP280;12205;50.600;4.608;2023-01-05T09:03:38;100397.47;;;11.79
23992;BMP280;12205;50.600;4.608;2023-01-05T09:06:07;100406.44;;;11.90
23992;BMP280;12205;50.600;4.608;2023-01-05T09:08:37;100419.09;;;11.93
23992;BMP280;12205;50.600;4.608;2023-01-05T09:11:06;100437.03;;;11.89
23992;BMP280;12205;50.600;4.608;2023-01-05T09:13:34;100435.56;;;11.92
23992;BMP280;12205;50.600;4.608;2023-01-05T09:16:09;100452.81;;;11.94
23992;BMP280;12205;50.600;4.608;2023-01-05T09:18:39;100464.22;;;11.91
23992;BMP280;12205;50.600;4.608;2023-01-05T09:21:07;100450.13;;;11.94
23992;BMP280;12205;50.600;4.608;2023-01-05T09:23:36;100471.56;;;11.94
23992;BMP280;12205;50.600;4.608;2023-01-05T09:26:04;100487.19;;;11.92
23992;BMP280;12205;50.600;4.608;2023-01-05T09:28:32;100476.22;;;11.98
23992;BMP280;12205;50.600;4.608;2023-01-05T09:31:08;100503.28;;;11.92
23992;BMP280;12205;50.600;4.608;2023-01-05T09:33:37;100481.28;;;12.03
23992;BMP280;12205;50.600;4.608;2023-01-05T09:36:05;100499.31;;;12.06
23992;BMP280;12205;50.600;4.608;2023-01-05T09:38:33;100501.25;;;12.09
23992;BMP280;12205;50.600;4.608;2023-01-05T09:41:06;100524.25;;;12.10
23992;BMP280;12205;50.600;4.608;2023-01-05T09:43:37;100520.13;;;12.16
23992;BMP280;12205;50.600;4.608;2023-01-05T09:46:13;100532.75;;;12.16
23992;BMP280;12205;50.600;4.608;2023-01-05T09:48:46;100529.06;;;12.01
23992;BMP280;12205;50.600;4.608;2023-01-05T09:51:15;100542.56;;;12.08
23992;BMP280;12205;50.600;4.608;2023-01-05T09:53:42;100535.56;;;12.00
23992;BMP280;12205;50.600;4.608;2023-01-05T09:56:23;100521.47;;;12.03
23992;BMP280;12205;50.600;4.608;2023-01-05T09:58:59;100542.94;;;12.06
23992;BMP280;12205;50.600;4.608;2023-01-05T10:01:31;100535.72;;;12.07
23992;BMP280;12205;50.600;4.608;2023-01-05T10:04:04;100537.75;;;12.13
23992;BMP280;12205;50.600;4.608;2023-01-05T10:06:36;100533.59;;;12.20
23992;BMP280;12205;50.600;4.608;2023-01-05T10:09:06;100557.25;;;12.14
23992;BMP280;12205;50.600;4.608;2023-01-05T10:11:42;100546.91;;;12.12
23992;BMP280;12205;50.600;4.608;2023-01-05T10:14:35;100543.41;;;12.12
23992;BMP280;12205;50.600;4.608;2023-01-05T10:17:11;100529.59;;;12.10
23992;BMP280;12205;50.600;4.608;2023-01-05T10:19:39;100535.72;;;12.07
23992;BMP280;12205;50.600;4.608;2023-01-05T10:22:22;100523.50;;;12.09
23992;BMP280;12205;50.600;4.608;2023-01-05T10:24:56;100513.47;;;12.06
23992;BMP280;12205;50.600;4.608;2023-01-05T10:27:33;100502.81;;;12.10
23992;BMP280;12205;50.600;4.608;2023-01-05T10:30:18;100484.47;;;12.12
23992;BMP280;12205;50.600;4.608;2023-01-05T10:32:57;100508.41;;;12.24
23992;BMP280;12205;50.600;4.608;2023-01-05T10:35:55;100495.84;;;12.28
23992;BMP280;12205;50.600;4.608;2023-01-05T10:38:43;100511.16;;;12.28
23992;BMP280;12205;50.600;4.608;2023-01-05T10:41:24;100509.28;;;12.32
23992;BMP280;12205;50.600;4.608;2023-01-05T10:44:27;100501.59;;;12.30
23992;BMP280;12205;50.600;4.608;2023-01-05T10:46:58;100499.47;;;12.40
23992;BMP280;12205;50.600;4.608;2023-01-05T10:49:29;100501.88;;;12.48
23992;BMP280;12205;50.600;4.608;2023-01-05T10:52:00;100497.38;;;12.56
23992;BMP280;12205;50.600;4.608;2023-01-05T10:54:37;100506.59;;;12.55
23992;BMP280;12205;50.600;4.608;2023-01-05T10:57:37;100502.03;;;12.59
23992;BMP280;12205;50.600;4.608;2023-01-05T11:00:13;100511.16;;;12.55
23992;BMP280;12205;50.600;4.608;2023-01-05T11:02:50;100504.38;;;12.38
23992;BMP280;12205;50.600;4.608;2023-01-05T11:05:29;100483.38;;;12.40
23992;BMP280;12205;50.600;4.608;2023-01-05T11:08:00;100485.72;;;12.45
23992;BMP280;12205;50.600;4.608;2023-01-05T11:10:30;100459.00;;;12.52
23992;BMP280;12205;50.600;4.608;2023-01-05T11:13:05;100490.50;;;12.55
23992;BMP280;12205;50.600;4.608;2023-01-05T11:15:42;100489.69;;;12.55
23992;BMP280;12205;50.600;4.608;2023-01-05T11:18:25;100485.94;;;12.59
23992;BMP280;12205;50.600;4.608;2023-01-05T11:21:19;100478.41;;;12.68
23992;BMP280;12205;50.600;4.608;2023-01-05T11:23:49;100482.31;;;12.75
23992;BMP280;12205;50.600;4.608;2023-01-05T11:26:27;100500.78;;;12.80
23992;BMP280;12205;50.600;4.608;2023-01-05T11:29:12;100496.25;;;12.84
23992;BMP280;12205;50.600;4.608;2023-01-05T11:31:52;100516.84;;;12.76
23992;BMP280;12205;50.600;4.608;2023-01-05T11:34:36;100492.31;;;12.78
23992;BMP280;12205;50.600;4.608;2023-01-05T11:37:20;100497.69;;;12.78
23992;BMP280;12205;50.600;4.608;2023-01-05T11:39:52;100489.00;;;12.88
23992;BMP280;12205;50.600;4.608;2023-01-05T11:42:31;100500.97;;;12.94
23992;BMP280;12205;50.600;4.608;2023-01-05T11:45:05;100505.44;;;12.86
23992;BMP280;12205;50.600;4.608;2023-01-05T11:47:38;100511.59;;;12.87
23992;BMP280;12205;50.600;4.608;2023-01-05T11:50:18;100495.41;;;12.80
23992;BMP280;12205;50.600;4.608;2023-01-05T11:52:52;100493.34;;;12.96
23992;BMP280;12205;50.600;4.608;2023-01-05T11:55:30;100502.59;;;13.02
23992;BMP280;12205;50.600;4.608;2023-01-05T11:58:31;100511.47;;;13.06
23992;BMP280;12205;50.600;4.608;2023-01-05T12:01:39;100504.97;;;13.07
23992;BMP280;12205;50.600;4.608;2023-01-05T12:04:35;100522.50;;;13.01
23992;BMP280;12205;50.600;4.608;2023-01-05T12:07:21;100484.94;;;12.98
23992;BMP280;12205;50.600;4.608;2023-01-05T12:10:03;100490.66;;;12.96
23992;BMP280;12205;50.600;4.608;2023-01-05T12:12:55;100465.69;;;12.92
23992;BMP280;12205;50.600;4.608;2023-01-05T12:15:44;100471.28;;;13.10
23992;BMP280;12205;50.600;4.608;2023-01-05T12:18:27;100476.72;;;13.17
23992;BMP280;12205;50.600;4.608;2023-01-05T12:21:05;100468.22;;;13.15
23992;BMP280;12205;50.600;4.608;2023-01-05T12:23:58;100455.94;;;13.11
23992;BMP280;12205;50.600;4.608;2023-01-05T12:26:39;100448.75;;;13.22
23992;BMP280;12205;50.600;4.608;2023-01-05T12:29:54;100438.78;;;13.19
23992;BMP280;12205;50.600;4.608;2023-01-05T12:32:40;100442.09;;;13.09
23992;BMP280;12205;50.600;4.608;2023-01-05T12:35:59;100431.41;;;13.12
23992;BMP280;12205;50.600;4.608;2023-01-05T12:38:36;100410.22;;;13.03
23992;BMP280;12205;50.600;4.608;2023-01-05T12:41:46;100376.13;;;13.07
23992;BMP280;12205;50.600;4.608;2023-01-05T12:44:47;100345.34;;;12.94
23992;BMP280;12205;50.600;4.608;2023-01-05T12:47:37;100288.63;;;12.92
23992;BMP280;12205;50.600;4.608;2023-01-05T12:50:23;100242.63;;;12.97
23992;BMP280;12205;50.600;4.608;2023-01-05T12:52:56;100234.25;;;13.02
23992;BMP280;12205;50.600;4.608;2023-01-05T12:55:30;100225.81;;;13.00
23992;BMP280;12205;50.600;4.608;2023-01-05T12:58:10;100209.63;;;12.93
23992;BMP280;12205;50.600;4.608;2023-01-05T13:00:40;100188.16;;;12.93
23992;BMP280;12205;50.600;4.608;2023-01-05T13:03:19;100159.03;;;12.92
23992;BMP280;12205;50.600;4.608;2023-01-05T13:05:56;100143.72;;;12.92
23992;BMP280;12205;50.600;4.608;2023-01-05T13:08:37;100133.72;;;12.89
23992;BMP280;12205;50.600;4.608;2023-01-05T13:11:13;100116.84;;;12.85
23992;BMP280;12205;50.600;4.608;2023-01-05T13:13:48;100100.81;;;12.92
23992;BMP280;12205;50.600;4.608;2023-01-05T13:16:21;100090.03;;;12.88
23992;BMP280;12205;50.600;4.608;2023-01-05T13:18:55;100082.38;;;12.94
23992;BMP280;12205;50.600;4.608;2023-01-05T13:21:25;100067.09;;;12.98
23992;BMP280;12205;50.600;4.608;2023-01-05T13:23:59;100059.44;;;12.97
23992;BMP280;12205;50.600;4.608;2023-01-05T13:26:28;100052.53;;;12.92
23992;BMP280;12205;50.600;4.608;2023-01-05T13:28:57;100041.78;;;12.92
23992;BMP280;12205;50.600;4.608;2023-01-05T13:32:19;100028.72;;;12.91
23992;BMP280;12205;50.600;4.608;2023-01-05T13:35:33;100021.78;;;12.86
23992;BMP280;12205;50.600;4.608;2023-01-05T13:38:30;100004.91;;;12.82
23992;BMP280;12205;50.600;4.608;2023-01-05T13:41:23;100006.00;;;12.74
23992;BMP280;12205;50.600;4.608;2023-01-05T13:44:31;99988.00;;;12.71
23992;BMP280;12205;50.600;4.608;2023-01-05T13:47:14;99969.59;;;12.73
23992;BMP280;12205;50.600;4.608;2023-01-05T13:50:36;99970.34;;;12.62
23992;BMP280;12205;50.600;4.608;2023-01-05T13:53:14;99950.06;;;12.68
23992;BMP280;12205;50.600;4.608;2023-01-05T13:55:48;99945.88;;;12.75
23992;BMP280;12205;50.600;4.608;2023-01-05T14:01:09;99914.47;;;12.75
23992;BMP280;12205;50.600;4.608;2023-01-05T14:03:39;99919.06;;;12.75
23992;BMP280;12205;50.600;4.608;2023-01-05T14:06:17;99930.94;;;12.70
23992;BMP280;12205;50.600;4.608;2023-01-05T14:08:53;99918.94;;;12.53
23992;BMP280;12205;50.600;4.608;2023-01-05T14:11:23;99928.56;;;12.61
23992;BMP280;12205;50.600;4.608;2023-01-05T14:13:54;99925.13;;;12.64
23992;BMP280;12205;50.600;4.608;2023-01-05T14:16:53;99915.91;;;12.58
23992;BMP280;12205;50.600;4.608;2023-01-05T14:19:55;99904.41;;;12.54
23992;BMP280;12205;50.600;4.608;2023-01-05T14:22:34;99889.50;;;12.57
23992;BMP280;12205;50.600;4.608;2023-01-05T14:28:45;99851.56;;;12.55
23992;BMP280;12205;50.600;4.608;2023-01-05T14:31:47;99841.63;;;12.55
23992;BMP280;12205;50.600;4.608;2023-01-05T14:34:18;99849.25;;;12.49
23992;BMP280;12205;50.600;4.608;2023-01-05T14:37:03;99840.78;;;12.44
23992;BMP280;12205;50.600;4.608;2023-01-05T14:39:40;99823.97;;;12.47
23992;BMP280;12205;50.600;4.608;2023-01-05T14:42:20;99816.69;;;12.51
23992;BMP280;12205;50.600;4.608;2023-01-05T14:44:51;99810.59;;;12.54
23992;BMP280;12205;50.600;4.608;2023-01-05T14:47:37;99822.44;;;12.53
23992;BMP280;12205;50.600;4.608;2023-01-05T14:50:27;99837.78;;;12.56